Time;durP1;ratioP1;P1;durP2;ratioP2;P2;SDS_P1;SDS_P2;PMS_P1;PMS_P2;Temp;Humidity;BMP_temperature;BMP_pressure;BME280_temperature;BME280_humidity;BME280_pressure;Samples;Min_cycle;Max_cycle;Signal;HPM_P1;HPM_P2
2021/10/26 00:00:19;;;;;;;3.57;2.87;;;;;;;9.53;35.13;100176.09;5054806;28;20040;-65
2021/10/26 00:02:46;;;;;;;4.03;2.90;;;;;;;9.60;35.10;100179.03;5038420;28;20519;-65
2021/10/26 00:05:11;;;;;;;4.03;3.00;;;;;;;9.55;35.17;100181.25;5054807;28;20084;-66
2021/10/26 00:07:37;;;;;;;5.27;3.30;;;;;;;9.38;35.42;100174.81;5072692;28;20049;-68
2021/10/26 00:10:07;;;;;;;5.60;3.80;;;;;;;9.87;35.47;100153.50;5054945;28;20036;-64
2021/10/26 00:12:33;;;;;;;4.38;2.50;;;;;;;9.68;35.11;100168.59;5021913;28;20048;-63
2021/10/26 00:15:00;;;;;;;6.80;2.80;;;;;;;9.54;35.30;100140.66;5037772;28;20057;-65
2021/10/26 00:17:25;;;;;;;5.93;2.90;;;;;;;9.72;35.24;100160.19;5021403;28;20052;-64
2021/10/26 00:19:52;;;;;;;3.80;3.20;;;;;;;9.68;35.29;100156.16;5038018;28;20088;-66
2021/10/26 00:22:18;;;;;;;3.93;3.07;;;;;;;9.74;35.37;100157.41;5054370;28;20101;-65
2021/10/26 00:24:44;;;;;;;8.80;3.23;;;;;;;9.88;35.43;100152.53;5072361;28;20041;-64
2021/10/26 00:27:11;;;;;;;5.67;3.17;;;;;;;9.73;35.45;100159.22;5054391;28;20048;-65
2021/10/26 00:29:37;;;;;;;4.40;3.00;;;;;;;9.79;35.34;100145.38;5054791;28;20071;-65
2021/10/26 00:32:03;;;;;;;3.57;2.67;;;;;;;9.49;36.16;100119.03;5072317;28;20037;-64
2021/10/26 00:34:30;;;;;;;6.20;3.10;;;;;;;9.69;36.06;100138.41;5054111;28;20044;-64
2021/10/26 00:36:56;;;;;;;6.90;2.93;;;;;;;9.68;35.45;100113.72;5037939;28;20125;-64
2021/10/26 00:39:22;;;;;;;3.67;2.70;;;;;;;9.43;36.22;100147.91;5054231;28;20110;-65
2021/10/26 00:41:48;;;;;;;5.73;3.30;;;;;;;9.71;35.82;100137.31;5037600;28;20050;-64
2021/10/26 00:44:14;;;;;;;9.83;3.13;;;;;;;10.07;35.56;100141.09;5020965;28;20047;-66
2021/10/26 00:46:41;;;;;;;7.43;2.87;;;;;;;9.80;35.85;100135.63;5037619;28;20047;-65
2021/10/26 00:49:11;;;;;;;10.80;3.10;;;;;;;10.01;35.54;100136.28;5037813;28;20040;-65
2021/10/26 00:51:39;;;;;;;6.60;3.30;;;;;;;10.21;35.69;100135.31;5037798;28;20083;-65
2021/10/26 00:54:05;;;;;;;5.27;3.20;;;;;;;10.13;35.60;100141.31;5054173;28;20044;-65
2021/10/26 00:56:34;;;;;;;5.13;3.00;;;;;;;9.90;35.41;100137.28;5037861;28;20040;-65
2021/10/26 00:59:01;;;;;;;4.40;3.03;;;;;;;9.95;35.38;100136.84;5053810;28;20411;-64
2021/10/26 01:01:28;;;;;;;3.93;2.83;;;;;;;9.88;35.84;100135.75;5052040;28;20113;-65
2021/10/26 01:03:55;;;;;;;7.17;3.10;;;;;;;9.80;35.88;100136.47;5034971;28;20047;-67
2021/10/26 01:06:20;;;;;;;4.57;2.90;;;;;;;9.95;35.55;100137.69;5034661;28;20044;-66
2021/10/26 01:08:49;;;;;;;5.50;3.27;;;;;;;10.23;35.70;100133.34;5051044;28;20060;-65
2021/10/26 01:11:15;;;;;;;3.90;2.90;;;;;;;9.95;36.09;100129.75;5034683;28;20040;-66
2021/10/26 01:13:44;;;;;;;6.27;3.77;;;;;;;9.89;36.05;100102.94;5018175;28;20048;-66
2021/10/26 01:16:10;;;;;;;4.23;2.87;;;;;;;9.94;36.00;100133.38;5052861;28;20081;-65
2021/10/26 01:18:36;;;;;;;6.27;3.20;;;;;;;9.89;35.96;100129.47;5053996;28;20048;-64
2021/10/26 01:21:02;;;;;;;6.27;3.00;;;;;;;9.86;36.15;100127.09;5020690;28;20230;-64
2021/10/26 01:23:28;;;;;;;7.03;3.80;;;;;;;9.86;36.13;100127.09;5053396;28;20563;-64
2021/10/26 01:25:55;;;;;;;5.33;3.27;;;;;;;9.82;35.94;100115.94;5053258;28;20052;-65
2021/10/26 01:28:22;;;;;;;5.93;3.17;;;;;;;9.92;36.51;100127.38;5019888;28;20059;-65
2021/10/26 01:30:49;;;;;;;7.10;3.17;;;;;;;9.52;36.73;100094.03;5034272;28;20059;-65
2021/10/26 01:33:41;;;;;;;5.13;2.83;;;;;;;9.88;36.07;100122.50;5034453;28;20056;-70
2021/10/26 01:36:27;;;;;;;7.97;3.37;;;;;;;10.02;35.93;100103.47;5068212;28;20053;-66
2021/10/26 01:38:54;;;;;;;6.47;3.57;;;;;;;9.93;36.00;100118.44;5034653;28;20495;-66
2021/10/26 01:41:19;;;;;;;5.60;2.83;;;;;;;9.62;36.19;100097.53;5051083;28;20131;-66
2021/10/26 01:43:52;;;;;;;7.20;3.57;;;;;;;10.03;36.06;100121.91;5034882;28;20496;-66
2021/10/26 01:46:18;;;;;;;6.47;3.10;;;;;;;10.01;35.84;100113.25;5052756;28;20040;-65
2021/10/26 01:48:44;;;;;;;5.37;3.33;;;;;;;9.85;36.09;100109.50;5036700;28;20036;-66
2021/10/26 01:51:10;;;;;;;6.37;3.60;;;;;;;9.91;35.75;100080.59;5036847;28;20500;-65
2021/10/26 01:53:36;;;;;;;5.93;3.47;;;;;;;9.74;36.22;100075.19;5019925;28;20044;-65
2021/10/26 01:56:05;;;;;;;5.20;3.03;;;;;;;9.99;35.75;100095.81;5052841;28;20514;-66
2021/10/26 01:59:00;;;;;;;6.90;3.20;;;;;;;10.09;35.56;100096.63;5056887;28;20075;-65
2021/10/26 02:01:36;;;;;;;6.20;3.03;;;;;;;10.00;35.66;100087.72;5037576;28;20044;-65
2021/10/26 02:04:02;;;;;;;6.93;3.23;;;;;;;9.78;36.42;100069.44;5052875;28;20048;-64
2021/10/26 02:06:31;;;;;;;6.30;3.00;;;;;;;9.94;36.14;100072.38;5069332;28;20041;-65
2021/10/26 02:08:57;;;;;;;6.70;3.00;;;;;;;9.65;36.45;100063.63;5035778;28;20390;-62
2021/10/26 02:11:22;;;;;;;8.70;3.00;;;;;;;9.70;36.39;100063.19;5035781;28;20041;-65
2021/10/26 02:13:48;;;;;;;4.50;3.20;;;;;;;9.68;36.46;100065.16;5035936;28;20037;-65
2021/10/26 02:16:14;;;;;;;6.97;4.13;;;;;;;9.66;36.42;100044.06;5052177;28;20432;-70
2021/10/26 02:18:40;;;;;;;10.77;3.50;;;;;;;9.86;36.13;100063.44;5052509;28;20048;-64
2021/10/26 02:21:07;;;;;;;7.87;3.07;;;;;;;9.59;37.17;100052.75;5019626;28;20424;-65
2021/10/26 02:23:33;;;;;;;5.30;3.00;;;;;;;9.77;36.81;100058.97;5052543;28;20068;-65
2021/10/26 02:25:59;;;;;;;6.00;3.13;;;;;;;9.74;36.28;100032.75;5070378;28;20047;-66
2021/10/26 02:28:26;;;;;;;10.03;3.50;;;;;;;9.99;36.06;100054.16;5036291;28;20066;-65
2021/10/26 02:30:52;;;;;;;5.63;3.20;;;;;;;9.95;36.30;100059.91;5035987;28;20036;-65
2021/10/26 02:33:18;;;;;;;5.57;3.17;;;;;;;9.85;36.42;100053.81;5052280;28;20053;-65
2021/10/26 02:35:45;;;;;;;5.27;3.30;;;;;;;9.84;36.44;100055.63;5036130;28;20461;-69
2021/10/26 02:38:12;;;;;;;7.53;2.97;;;;;;;9.81;36.62;100055.09;5052596;28;20496;-65
2021/10/26 02:40:38;;;;;;;5.87;2.80;;;;;;;9.65;36.63;100021.19;5052398;28;20044;-65
2021/10/26 02:43:04;;;;;;;4.17;2.47;;;;;;;9.89;36.47;100056.03;5019286;28;20401;-64
2021/10/26 02:45:33;;;;;;;6.07;3.13;;;;;;;9.68;36.64;100047.44;5035921;28;20528;-64
2021/10/26 02:48:00;;;;;;;6.37;3.17;;;;;;;9.64;36.85;100045.19;5052398;28;20508;-64
2021/10/26 02:50:27;;;;;;;7.00;3.00;;;;;;;9.61;36.52;100021.63;5052289;28;20068;-65
2021/10/26 02:52:53;;;;;;;7.00;3.33;;;;;;;10.00;36.29;100041.75;5019309;28;20075;-65
2021/10/26 02:55:19;;;;;;;6.60;3.30;;;;;;;9.89;36.22;100031.31;5019152;28;20049;-64
2021/10/26 02:57:46;;;;;;;4.67;2.70;;;;;;;9.38;37.34;100044.13;5035836;28;20492;-66
2021/10/26 03:00:12;;;;;;;6.70;3.17;;;;;;;9.94;37.03;100040.53;5019306;28;20036;-65
2021/10/26 03:02:41;;;;;;;10.13;3.00;;;;;;;10.41;36.26;100037.84;5018860;28;20032;-65
2021/10/26 03:05:08;;;;;;;5.67;3.07;;;;;;;9.76;36.45;100023.66;5002323;28;20544;-73
2021/10/26 03:07:42;;;;;;;9.40;3.07;;;;;;;10.28;36.26;100040.84;5035394;28;20131;-69
2021/10/26 03:10:08;;;;;;;6.37;3.50;;;;;;;9.68;36.85;100018.25;5035423;28;20063;-74
2021/10/26 03:12:35;;;;;;;5.50;3.10;;;;;;;9.66;36.68;99992.84;5035356;28;20040;-74
2021/10/26 03:15:01;;;;;;;5.63;3.13;;;;;;;9.93;36.42;100017.59;5018978;28;20041;-73
2021/10/26 03:17:28;;;;;;;5.30;3.13;;;;;;;9.66;36.44;100011.41;5035968;28;20055;-72
2021/10/26 03:20:20;;;;;;;7.27;3.23;;;;;;;9.88;36.79;100017.22;5067018;28;20139;-74
2021/10/26 03:22:46;;;;;;;8.77;3.40;;;;;;;9.87;36.44;100027.97;5053628;28;20075;-69
2021/10/26 03:25:12;;;;;;;7.37;3.17;;;;;;;9.75;36.55;100008.72;5018637;28;20408;-70
2021/10/26 03:27:38;;;;;;;7.23;3.63;;;;;;;9.76;36.83;100030.78;5048520;28;20052;-72
2021/10/26 03:30:09;;;;;;;6.30;3.30;;;;;;;9.97;36.55;99999.59;5036523;28;20097;-75
2021/10/26 03:32:36;;;;;;;6.60;3.37;;;;;;;10.08;36.17;100025.97;5073208;28;20044;-77
2021/10/26 03:35:22;;;;;;;7.47;3.10;;;;;;;10.11;36.15;100021.22;5092544;28;20090;-78
2021/10/26 03:37:49;;;;;;;7.37;3.17;;;;;;;10.14;35.95;100017.44;5093183;28;20083;-68
2021/10/26 03:40:15;;;;;;;7.87;3.40;;;;;;;10.05;35.95;100015.63;5075684;28;20552;-75
2021/10/26 03:42:42;;;;;;;7.03;2.90;;;;;;;10.08;35.86;100021.50;5074353;28;20066;-75
2021/10/26 03:45:08;;;;;;;4.60;2.90;;;;;;;10.14;36.30;100015.63;5074647;28;20854;-73
2021/10/26 03:47:39;;;;;;;8.50;3.13;;;;;;;10.52;35.87;100003.16;5074429;28;20539;-75
2021/10/26 03:50:08;;;;;;;4.77;3.20;;;;;;;10.45;35.62;99986.13;5057436;28;20051;-74
2021/10/26 03:52:34;;;;;;;8.40;3.27;;;;;;;10.09;36.05;99993.13;5075522;28;20510;-78
2021/10/26 03:55:00;;;;;;;8.10;3.50;;;;;;;10.05;36.15;100005.84;5076927;28;20044;-75
2021/10/26 03:57:26;;;;;;;6.93;3.27;;;;;;;10.03;35.79;99975.13;5042724;28;20089;-74
2021/10/26 03:59:52;;;;;;;7.53;3.20;;;;;;;10.02;35.76;100008.75;5075099;28;20458;-74
2021/10/26 04:02:26;;;;;;;5.77;3.20;;;;;;;9.98;36.07;100004.75;5059023;28;20096;-75
2021/10/26 04:04:56;;;;;;;22.07;10.37;;;;;;;9.97;35.80;99975.69;5058405;28;20039;-76
2021/10/26 04:07:22;;;;;;;7.60;3.57;;;;;;;9.96;35.81;100001.38;5074784;28;20040;-71
2021/10/26 04:09:55;;;;;;;4.77;2.97;;;;;;;10.11;36.15;100004.44;5092268;28;20755;-71
2021/10/26 04:12:28;;;;;;;8.65;3.38;;;;;;;10.00;35.88;99976.25;5073692;28;20040;-74
2021/10/26 04:14:59;;;;;;;;;;;;;;;10.67;35.35;100002.47;5075107;28;20108;-71
2021/10/26 04:17:27;;;;;;;9.07;3.33;;;;;;;10.21;35.91;99979.53;5074128;28;20018;-76
2021/10/26 04:20:00;;;;;;;6.03;3.60;;;;;;;10.02;36.12;99992.84;5073825;28;20127;-75
2021/10/26 04:22:28;;;;;;;13.07;3.27;;;;;;;9.93;35.88;99980.47;5074228;28;20048;-75
2021/10/26 04:24:54;;;;;;;7.17;4.07;;;;;;;9.76;36.10;99996.31;5073672;28;20558;-72
2021/10/26 04:27:22;;;;;;;8.57;4.07;;;;;;;9.77;36.31;100004.13;5073883;28;20514;-74
2021/10/26 04:29:49;;;;;;;5.57;3.43;;;;;;;10.19;35.74;99997.41;5073657;28;20094;-67
2021/10/26 04:32:17;;;;;;;9.37;3.20;;;;;;;10.54;35.53;99988.72;5041630;28;20094;-72
2021/10/26 04:34:49;;;;;;;5.87;3.40;;;;;;;10.09;35.99;99986.03;5058091;28;20043;-73
2021/10/26 04:37:14;;;;;;;6.63;3.53;;;;;;;10.31;35.52;99987.47;5073731;28;20040;-75
2021/10/26 04:39:41;;;;;;;8.90;3.70;;;;;;;10.24;35.71;99989.84;5045272;28;20086;-76
2021/10/26 04:42:08;;;;;;;13.33;3.43;;;;;;;10.32;35.77;99986.47;5072985;28;20067;-74
2021/10/26 04:44:36;;;;;;;5.40;3.40;;;;;;;10.42;35.81;99986.41;5056984;28;20046;-74
2021/10/26 04:47:03;;;;;;;5.17;3.43;;;;;;;10.06;36.00;99985.44;5073929;28;20044;-76
2021/10/26 04:49:29;;;;;;;6.43;3.33;;;;;;;10.34;35.74;99981.00;5057554;28;20059;-74
2021/10/26 04:51:55;;;;;;;7.90;3.63;;;;;;;10.43;35.80;99978.31;5072857;28;20079;-70
2021/10/26 04:54:21;;;;;;;6.50;3.30;;;;;;;10.55;35.32;99986.91;5037743;28;20040;-74
2021/10/26 04:56:58;;;;;;;5.50;3.30;;;;;;;10.62;35.14;99974.69;5054215;28;20044;-75
2021/10/26 04:59:33;;;;;;;5.60;3.40;;;;;;;10.38;35.75;99972.59;5055678;28;20036;-74
2021/10/26 05:01:59;;;;;;;6.77;2.93;;;;;;;10.53;35.25;99955.19;5056389;28;20044;-74
2021/10/26 05:04:25;;;;;;;6.43;3.10;;;;;;;10.80;34.88;99972.88;5072053;28;20138;-76
2021/10/26 05:06:53;;;;;;;5.23;3.30;;;;;;;10.96;34.46;99973.84;5073311;28;20134;-75
2021/10/26 05:09:19;;;;;;;6.07;3.17;;;;;;;11.01;34.60;99965.47;5058603;28;20136;-74
2021/10/26 05:11:45;;;;;;;6.93;3.33;;;;;;;10.98;34.46;99950.63;5073036;28;20044;-75
2021/10/26 05:14:11;;;;;;;5.50;3.23;;;;;;;11.23;34.59;99962.31;5039886;28;20116;-77
2021/10/26 05:16:56;;;;;;;8.27;3.57;;;;;;;11.18;nan;99961.91;5061297;28;20075;-72
2021/10/26 05:19:41;;;;;;;9.00;3.30;;;;;;;11.03;34.51;99960.81;5058802;28;20044;-77
2021/10/26 05:22:27;;;;;;;8.90;3.43;;;;;;;10.65;34.91;99966.41;5091378;28;20040;-78
2021/10/26 05:25:11;;;;;;;11.03;5.13;;;;;;;11.16;34.47;99969.22;5092354;28;20044;-76
2021/10/26 05:27:55;;;;;;;7.17;3.53;;;;;;;11.43;33.57;99975.25;5056882;28;20541;-69
2021/10/26 05:30:21;;;;;;;7.00;3.13;;;;;;;11.44;33.74;99968.94;5056601;28;20127;-72
2021/10/26 05:32:47;;;;;;;5.90;3.33;;;;;;;11.41;33.42;99965.75;5056416;28;20487;-71
2021/10/26 05:35:13;;;;;;;9.13;3.37;;;;;;;11.56;33.33;99966.88;5090959;28;20534;-73
2021/10/26 05:37:38;;;;;;;7.90;3.53;;;;;;;11.59;33.27;99974.53;5055604;28;20052;-78
2021/10/26 05:40:06;;;;;;;7.23;3.33;;;;;;;11.53;33.63;99968.00;5039010;28;20036;-73
2021/10/26 05:42:32;;;;;;;4.67;3.00;;;;;;;11.18;34.11;99965.41;5056713;28;20093;-74
2021/10/26 05:44:58;;;;;;;9.87;4.10;;;;;;;11.30;34.45;99966.84;5074150;28;20185;-75
2021/10/26 05:47:24;;;;;;;11.13;3.80;;;;;;;11.50;33.02;99949.69;5039031;28;20142;-75
2021/10/26 05:49:49;;;;;;;4.80;3.00;;;;;;;11.43;33.46;99961.13;5055817;28;20048;-73
2021/10/26 05:52:16;;;;;;;6.60;3.37;;;;;;;11.14;33.70;99969.38;5055736;28;20051;-74
2021/10/26 05:54:42;;;;;;;8.57;3.50;;;;;;;11.62;33.38;99958.28;5071555;28;20520;-74
2021/10/26 05:57:08;;;;;;;11.40;3.10;;;;;;;12.08;32.42;99962.38;5039056;28;20047;-74
2021/10/26 05:59:33;;;;;;;6.17;3.40;;;;;;;11.55;32.47;99931.44;5055680;28;20124;-74
2021/10/26 06:01:59;;;;;;;8.57;3.53;;;;;;;12.18;31.93;99961.25;5057683;28;20040;-75
2021/10/26 06:04:25;;;;;;;4.67;3.00;;;;;;;11.90;32.47;99959.78;5039911;28;20043;-74
2021/10/26 06:06:53;;;;;;;10.57;5.27;;;;;;;11.46;32.69;99968.78;5039502;28;20040;-74
2021/10/26 06:09:19;;;;;;;8.57;3.80;;;;;;;11.60;33.15;99961.09;5055372;28;20104;-74
2021/10/26 06:11:49;;;;;;;7.67;3.47;;;;;;;11.96;32.09;99967.16;5055067;28;20040;-73
2021/10/26 06:14:15;;;;;;;6.80;3.57;;;;;;;11.70;32.26;99955.69;5072114;28;20180;-72
2021/10/26 06:16:42;;;;;;;8.17;3.30;;;;;;;11.34;33.25;99967.38;5052308;28;20067;-79
2021/10/26 06:19:09;;;;;;;11.05;3.28;;;;;;;11.97;33.08;99968.81;5036594;28;20044;-77
2021/10/26 06:21:36;;;;;;;11.37;4.17;;;;;;;12.61;31.91;99969.03;5053870;28;20134;-79
2021/10/26 06:24:02;;;;;;;9.27;3.70;;;;;;;12.67;31.43;99959.59;5035903;28;20049;-79
2021/10/26 06:26:29;;;;;;;11.25;3.70;;;;;;;13.14;30.56;99955.34;5069482;28;20044;-80
2021/10/26 06:29:01;;;;;;;8.07;4.05;;;;;;;13.12;30.38;99974.16;5085971;28;20040;-76
2021/10/26 06:31:27;;;;;;;6.90;3.47;;;;;;;13.06;30.11;99966.84;5035574;28;20134;-76
2021/10/26 06:33:55;;;;;;;6.68;3.53;;;;;;;13.41;30.05;99961.16;5019074;28;20040;-76
2021/10/26 06:36:25;;;;;;;10.82;3.70;;;;;;;13.68;29.40;99967.97;5035537;28;20131;-77
2021/10/26 06:38:53;;;;;;;7.57;3.70;;;;;;;13.39;29.59;99933.00;5053874;28;20051;-71
2021/10/26 06:41:20;;;;;;;7.63;3.65;;;;;;;13.98;29.28;99955.69;5086397;28;20052;-76
2021/10/26 06:44:02;;;;;;;6.60;3.35;;;;;;;14.02;29.08;99954.34;5068566;28;20051;-78
2021/10/26 06:47:00;;;;;;;8.70;3.60;;;;;;;14.47;28.36;99925.94;5068277;28;20660;-74
2021/10/26 06:49:45;;;;;;;9.45;4.30;;;;;;;15.38;27.30;99945.53;5068582;28;20523;-76
2021/10/26 06:52:43;;;;;;;10.05;3.75;;;;;;;16.67;25.30;99945.72;5025264;28;20511;-79
2021/10/26 06:55:43;;;;;;;5.97;3.40;;;;;;;18.51;22.80;99946.16;5023399;28;20072;-78
2021/10/26 06:58:38;;;;;;;11.63;3.70;;;;;;;20.62;20.06;99947.53;5069892;28;20044;-77
2021/10/26 07:01:38;;;;;;;5.85;3.50;;;;;;;20.49;19.59;99961.09;4980751;28;20058;-74
2021/10/26 07:04:12;;;;;;;13.98;3.80;;;;;;;21.08;18.78;99907.63;5046304;28;20058;-75
2021/10/26 07:07:01;;;;;;;6.18;3.42;;;;;;;21.87;18.27;99940.22;5058668;28;20147;-77
2021/10/26 07:09:46;;;;;;;6.15;3.22;;;;;;;23.51;16.84;99933.50;5057837;28;20123;-77
2021/10/26 07:12:16;;;;;;;10.48;3.63;;;;;;;23.97;15.80;99920.78;5071754;28;20556;-77
2021/10/26 07:14:43;;;;;;;7.95;3.90;;;;;;;23.07;15.88;99932.91;5039831;28;20140;-77
2021/10/26 07:17:11;;;;;;;10.75;3.97;;;;;;;22.25;16.92;99919.19;5056859;28;20052;-81
2021/10/26 07:19:37;;;;;;;5.82;3.55;;;;;;;23.21;16.93;99919.97;5038232;28;20388;-79
2021/10/26 07:22:26;;;;;;;9.20;4.10;;;;;;;25.32;14.56;99895.50;5053664;28;20052;-80
2021/10/26 07:25:05;;;;;;;9.20;3.92;;;;;;;24.20;15.15;99911.81;5056908;28;20181;-71
2021/10/26 07:27:32;;;;;;;5.40;3.35;;;;;;;25.17;14.60;99903.38;5071647;28;20044;-78
2021/10/26 07:29:59;;;;;;;9.65;3.90;;;;;;;23.46;15.71;99907.09;5022880;28;20056;-74
2021/10/26 07:32:25;;;;;;;7.15;4.30;;;;;;;21.73;16.94;99906.22;5072937;28;20052;-75
2021/10/26 07:34:51;;;;;;;8.65;3.97;;;;;;;22.34;17.33;99907.00;5072815;28;20590;-75
2021/10/26 07:37:22;;;;;;;11.40;4.53;;;;;;;24.06;15.92;99894.97;5038779;28;20049;-74
2021/10/26 07:39:59;;;;;;;7.10;3.83;;;;;;;24.85;14.96;99913.13;5057191;28;20043;-75
2021/10/26 07:42:26;;;;;;;8.68;3.67;;;;;;;26.69;13.61;99912.72;5038569;28;20044;-74
2021/10/26 07:45:12;;;;;;;5.78;3.63;;;;;;;22.63;15.85;99898.13;5070893;28;20531;-73
2021/10/26 07:47:38;;;;;;;7.68;3.97;;;;;;;21.85;17.11;99904.47;5054490;28;20048;-74
2021/10/26 07:50:07;;;;;;;12.45;3.88;;;;;;;24.27;15.82;99899.75;5053787;28;20045;-72
2021/10/26 07:52:33;;;;;;;13.90;4.32;;;;;;;23.80;15.38;99879.13;5070651;28;20044;-71
2021/10/26 07:55:28;;;;;;;8.70;4.47;;;;;;;26.73;13.26;99892.03;5053216;28;20040;-71
2021/10/26 07:57:59;;;;;;;7.28;4.18;;;;;;;28.12;12.28;99897.03;5069490;28;20136;-71
2021/10/26 08:00:25;;;;;;;10.82;4.53;;;;;;;28.53;11.61;99898.03;5053733;28;20124;-68
2021/10/26 08:03:00;;;;;;;11.77;4.40;;;;;;;28.29;11.55;99891.38;5038415;28;20067;-70
2021/10/26 08:05:45;;;;;;;8.05;3.95;;;;;;;26.32;12.81;99879.84;5070995;28;20036;-72
2021/10/26 08:08:12;;;;;;;10.90;4.03;;;;;;;26.16;13.21;99856.22;5070882;28;20044;-72
2021/10/26 08:10:38;;;;;;;8.40;3.88;;;;;;;26.88;12.74;99879.41;5055034;28;20047;-73
2021/10/26 08:13:04;;;;;;;10.18;4.10;;;;;;;28.48;11.73;99876.16;5071426;28;20048;-71
2021/10/26 08:15:30;;;;;;;6.00;3.70;;;;;;;29.06;11.17;99893.00;5053804;28;20080;-71
2021/10/26 08:17:56;;;;;;;7.70;4.15;;;;;;;26.21;13.26;99880.78;5069951;28;20420;-68
2021/10/26 08:20:23;;;;;;;7.60;4.10;;;;;;;25.86;13.60;99869.41;5070838;28;20072;-72
2021/10/26 08:22:49;;;;;;;7.28;4.03;;;;;;;26.41;12.92;99868.25;5021249;28;20111;-72
2021/10/26 08:25:27;;;;;;;8.40;4.05;;;;;;;26.06;13.06;99856.91;5037552;28;20043;-71
2021/10/26 08:27:58;;;;;;;8.23;4.27;;;;;;;26.10;13.56;99877.13;5071091;28;20511;-72
2021/10/26 08:30:31;;;;;;;8.77;3.88;;;;;;;26.07;13.36;99855.00;5071266;28;20340;-72
2021/10/26 08:33:15;;;;;;;10.15;4.22;;;;;;;24.42;14.78;99855.75;5071176;28;20040;-73
2021/10/26 08:35:41;;;;;;;5.85;3.85;;;;;;;24.85;14.60;99861.50;5070305;28;20056;-73
2021/10/26 08:38:08;;;;;;;8.30;4.30;;;;;;;26.37;13.51;99878.00;5071346;28;20044;-72
2021/10/26 08:40:46;;;;;;;10.05;4.10;;;;;;;26.26;13.37;99873.50;5039133;28;20041;-72
2021/10/26 08:43:22;;;;;;;8.65;3.80;;;;;;;26.29;13.36;99870.25;5054353;28;20415;-72
2021/10/26 08:45:49;;;;;;;13.63;4.43;;;;;;;27.40;12.16;99849.63;5036740;28;20047;-71
2021/10/26 08:48:24;;;;;;;16.08;4.75;;;;;;;28.10;11.83;99876.53;5021454;28;20047;-72
2021/10/26 08:50:52;;;;;;;6.10;3.83;;;;;;;26.75;12.03;99868.09;5072031;28;20036;-71
2021/10/26 08:53:19;;;;;;;11.57;4.32;;;;;;;23.53;15.29;99831.88;5070067;28;20055;-71
2021/10/26 08:56:11;;;;;;;7.47;3.90;;;;;;;22.32;16.33;99821.69;5053549;28;20056;-72
2021/10/26 08:58:56;;;;;;;6.40;3.97;;;;;;;21.54;17.15;99824.28;5070493;28;20044;-71
2021/10/26 09:01:23;;;;;;;7.70;4.20;;;;;;;22.59;16.72;99850.91;5054007;28;20411;-71
2021/10/26 09:04:11;;;;;;;8.13;3.53;;;;;;;23.77;15.43;99844.34;5054451;28;20497;-67
2021/10/26 09:06:48;;;;;;;8.13;3.72;;;;;;;24.06;15.38;99840.69;5054246;28;20445;-70
2021/10/26 09:09:17;;;;;;;9.23;3.78;;;;;;;25.21;14.36;99839.31;5053783;28;20089;-71
2021/10/26 09:18:27;;;;;;;6.03;4.00;;;;;;;22.08;17.46;99836.19;5070674;28;20044;-71
2021/10/26 09:20:53;;;;;;;6.57;3.75;;;;;;;23.74;15.92;99844.00;5053135;28;20074;-70
2021/10/26 09:23:28;;;;;;;8.18;4.03;;;;;;;25.20;14.12;99840.34;5069577;28;20165;-71
2021/10/26 09:26:00;;;;;;;9.07;4.10;;;;;;;25.13;14.23;99836.16;5054237;28;20149;-72
2021/10/26 09:28:27;;;;;;;10.07;4.10;;;;;;;25.51;14.35;99838.97;5070260;28;20094;-72
2021/10/26 09:31:29;;;;;;;7.10;3.97;;;;;;;27.61;12.39;99845.94;5069593;28;20037;-72
2021/10/26 09:34:07;;;;;;;7.85;3.88;;;;;;;26.78;13.00;99819.34;5069701;28;20044;-72
2021/10/26 09:36:39;;;;;;;12.40;3.90;;;;;;;26.77;12.93;99834.03;5070540;28;20040;-71
2021/10/26 09:39:05;;;;;;;12.27;4.43;;;;;;;26.67;13.12;99827.66;5070476;28;20044;-71
2021/10/26 09:41:31;;;;;;;9.40;3.80;;;;;;;27.63;12.23;99811.03;5070240;28;20032;-71
2021/10/26 09:44:14;;;;;;;9.15;4.20;;;;;;;25.48;13.30;99818.53;5071544;28;20112;-71
2021/10/26 09:46:51;;;;;;;11.25;4.32;;;;;;;26.10;13.98;99791.88;5071029;28;20457;-72
2021/10/26 09:49:30;;;;;;;9.73;4.00;;;;;;;27.92;12.06;99799.44;5051496;28;20135;-71
2021/10/26 09:52:17;;;;;;;12.02;4.32;;;;;;;28.12;11.45;99798.72;5052874;28;20051;-72
2021/10/26 09:54:47;;;;;;;11.57;4.20;;;;;;;29.04;11.03;99788.50;5068940;28;20058;-71
2021/10/26 09:57:14;;;;;;;7.95;3.90;;;;;;;28.09;11.66;99774.66;5052039;28;20415;-73
2021/10/26 09:59:54;;;;;;;10.20;3.70;;;;;;;28.71;11.21;99782.72;5069907;28;20055;-72
2021/10/26 10:02:24;;;;;;;8.80;4.15;;;;;;;28.59;11.46;99788.47;5069728;28;20049;-71
2021/10/26 10:04:52;;;;;;;7.10;3.85;;;;;;;29.33;10.77;99795.06;5035968;28;20526;-73
2021/10/26 10:07:28;;;;;;;11.00;3.85;;;;;;;27.90;11.70;99770.78;5069801;28;20590;-71
2021/10/26 10:10:04;;;;;;;10.25;3.88;;;;;;;28.54;11.35;99768.53;5035351;28;20098;-73
2021/10/26 10:12:31;;;;;;;9.32;3.85;;;;;;;27.92;11.43;99761.22;5035844;28;20038;-69
2021/10/26 10:14:57;;;;;;;9.45;4.20;;;;;;;27.71;11.82;99745.81;5071673;28;20040;-72
2021/10/26 10:17:27;;;;;;;7.07;4.00;;;;;;;27.89;11.90;99750.03;5089668;28;20043;-73
2021/10/26 10:19:54;;;;;;;11.03;4.40;;;;;;;29.18;11.00;99743.09;5072519;28;20043;-71
2021/10/26 10:22:27;;;;;;;8.20;4.22;;;;;;;27.00;11.80;99754.63;5072281;28;20044;-73
2021/10/26 10:25:03;;;;;;;9.43;3.70;;;;;;;27.54;12.14;99736.16;5071651;28;20475;-73
2021/10/26 10:27:33;;;;;;;7.70;4.00;;;;;;;27.76;11.76;99748.56;5054168;28;20495;-71
2021/10/26 10:29:59;;;;;;;;;;;;;;;28.31;11.72;99728.00;5035339;28;20040;-73
2021/10/26 10:32:27;;;;;;;8.88;4.03;;;;;;;27.34;12.48;99730.63;5035140;28;19927;-77
2021/10/26 10:34:54;;;;;;;6.53;4.00;;;;;;;26.48;12.15;99717.41;5069686;28;20400;-73
2021/10/26 10:37:25;;;;;;;8.55;4.50;;;;;;;25.74;13.33;99697.28;5019430;28;20451;-75
2021/10/26 10:39:55;;;;;;;8.77;4.13;;;;;;;26.40;12.72;99718.69;5052529;28;20040;-73
2021/10/26 10:42:30;;;;;;;8.80;3.83;;;;;;;27.67;11.93;99697.50;5035010;28;20492;-74
2021/10/26 10:45:03;;;;;;;10.18;4.38;;;;;;;27.03;12.23;99718.66;5036990;28;20044;-73
2021/10/26 10:47:40;;;;;;;8.57;4.47;;;;;;;27.27;12.32;99694.56;5034798;28;20051;-72
2021/10/26 10:50:36;;;;;;;9.65;4.53;;;;;;;26.41;13.14;99704.81;5034933;28;20118;-73
2021/10/26 10:53:10;;;;;;;6.85;4.30;;;;;;;25.76;13.11;99719.59;5019768;28;20059;-74
2021/10/26 10:55:41;;;;;;;7.88;4.20;;;;;;;26.49;12.48;99693.44;5053190;28;20040;-74
2021/10/26 10:58:43;;;;;;;8.88;3.97;;;;;;;26.42;12.68;99695.56;5052084;28;20496;-74
2021/10/26 11:01:35;;;;;;;6.18;3.83;;;;;;;27.67;12.03;99686.56;5050532;28;20496;-72
2021/10/26 11:04:27;;;;;;;8.10;4.15;;;;;;;27.67;11.61;99711.13;5034907;28;20488;-73
2021/10/26 11:06:56;;;;;;;14.68;4.07;;;;;;;24.71;13.28;99692.56;5057430;28;20460;-74
2021/10/26 11:09:31;;;;;;;5.47;3.70;;;;;;;23.65;14.13;99669.16;5033910;28;20040;-73
2021/10/26 11:12:27;;;;;;;7.90;4.05;;;;;;;24.15;14.39;99668.25;5068838;28;20041;-71
2021/10/26 11:14:56;;;;;;;10.32;4.05;;;;;;;22.11;16.28;99657.19;5052812;28;20053;-73
2021/10/26 11:17:42;;;;;;;11.82;3.83;;;;;;;23.76;15.02;99671.00;5034520;28;20040;-72
2021/10/26 11:20:28;;;;;;;9.25;4.43;;;;;;;24.30;14.31;99668.50;5068796;28;20546;-71
2021/10/26 11:23:02;;;;;;;9.57;3.75;;;;;;;23.18;14.68;99653.00;5069347;28;20040;-72
2021/10/26 11:25:27;;;;;;;8.98;3.90;;;;;;;24.08;13.91;99664.03;5051133;28;20131;-71
2021/10/26 11:27:55;;;;;;;7.28;3.95;;;;;;;24.84;13.86;99672.38;5068479;28;20151;-73
2021/10/26 11:30:36;;;;;;;6.70;3.63;;;;;;;25.47;13.31;99666.47;5033573;28;20109;-71
2021/10/26 11:33:14;;;;;;;8.85;3.40;;;;;;;24.40;13.77;99682.25;5051024;28;20167;-72
2021/10/26 11:36:30;;;;;;;7.25;3.45;;;;;;;23.75;14.29;99674.78;5050917;28;20037;-71
2021/10/26 11:38:50;;;;;;;8.15;3.70;;;;;;;22.31;15.62;99658.50;5064060;28;20048;-71
2021/10/26 11:41:21;;;;;;;9.32;4.07;;;;;;;20.30;17.95;99673.34;5016796;28;20068;-71
2021/10/26 11:43:48;;;;;;;8.10;3.65;;;;;;;20.35;17.73;99670.84;5067218;28;20036;-72
2021/10/26 11:46:23;;;;;;;23.50;8.10;;;;;;;20.87;17.78;99634.41;5067687;28;20071;-72
2021/10/26 11:48:55;;;;;;;6.40;3.60;;;;;;;19.93;18.65;99639.16;5035029;28;20511;-73
2021/10/26 11:51:38;;;;;;;5.88;3.63;;;;;;;20.07;18.72;99646.94;5051663;28;20530;-72
2021/10/26 11:54:22;;;;;;;6.18;3.33;;;;;;;20.20;17.98;99637.97;5054531;28;20496;-72
2021/10/26 11:56:49;;;;;;;7.88;3.00;;;;;;;19.08;18.82;99642.25;5054628;28;20500;-72